createdAt,value
2023-03-31T00:01:04.521Z,90.05
2023-03-31T00:03:34.279Z,89.57
2023-03-31T00:06:02.004Z,92.17
2023-03-31T00:08:35.663Z,90.32
2023-03-31T00:11:07.314Z,91.64
2023-03-31T00:13:35.619Z,94.97
2023-03-31T00:16:06.002Z,95.19
2023-03-31T00:18:34.459Z,94.20
2023-03-31T00:21:24.633Z,93.50
2023-03-31T00:23:57.818Z,92.35
2023-03-31T00:26:26.318Z,89.22
2023-03-31T00:28:54.493Z,88.21
2023-03-31T00:31:22.543Z,86.94
2023-03-31T00:33:50.754Z,86.74
2023-03-31T00:36:21.514Z,86.54
2023-03-31T00:38:49.392Z,86.41
2023-03-31T00:41:16.894Z,86.04
2023-03-31T00:44:02.362Z,86.88
2023-03-31T00:46:43.951Z,87.87
2023-03-31T00:49:16.550Z,86.97
2023-03-31T00:51:44.638Z,86.60
2023-03-31T00:54:12.738Z,89.75
2023-03-31T00:56:42.328Z,91.26
2023-03-31T00:59:12.012Z,92.24
2023-03-31T01:01:42.999Z,94.97
2023-03-31T01:04:12.395Z,94.12
2023-03-31T01:06:46.980Z,94.66
2023-03-31T01:09:17.033Z,91.70
2023-03-31T01:11:46.467Z,90.62
2023-03-31T01:14:14.381Z,90.66
2023-03-31T01:16:42.189Z,89.97
2023-03-31T01:19:17.384Z,88.93
2023-03-31T01:22:16.200Z,89.43
2023-03-31T01:25:08.577Z,88.97
2023-03-31T01:27:54.186Z,90.75
2023-03-31T01:30:31.275Z,92.69
2023-03-31T01:33:32.928Z,96.62
2023-03-31T01:36:19.292Z,100.00
2023-03-31T01:39:05.104Z,100.00
2023-03-31T01:42:05.022Z,100.00
2023-03-31T01:44:53.441Z,100.00
2023-03-31T01:47:31.754Z,100.00
2023-03-31T01:50:08.040Z,100.00
2023-03-31T01:52:45.939Z,100.00
2023-03-31T01:55:20.881Z,100.00
2023-03-31T01:57:52.830Z,100.00
2023-03-31T02:00:26.173Z,100.00
2023-03-31T02:03:01.604Z,99.55
2023-03-31T02:05:43.348Z,92.32
2023-03-31T02:08:14.437Z,94.20
2023-03-31T02:10:42.972Z,89.53
2023-03-31T02:13:11.773Z,84.79
2023-03-31T02:15:46.320Z,84.13
2023-03-31T02:18:17.328Z,90.82
2023-03-31T02:20:47.544Z,92.98
2023-03-31T02:23:17.335Z,91.01
2023-03-31T02:25:51.457Z,90.40
2023-03-31T02:28:21.684Z,92.41
2023-03-31T02:30:53.320Z,90.65
2023-03-31T02:33:21.331Z,92.16
2023-03-31T02:35:48.772Z,93.15
2023-03-31T02:38:16.435Z,93.93
2023-03-31T02:40:44.205Z,96.28
2023-03-31T02:43:11.951Z,97.69
2023-03-31T02:45:45.359Z,97.62
2023-03-31T02:48:26.538Z,93.77
2023-03-31T02:51:23.064Z,96.60
2023-03-31T02:54:20.006Z,100.00
2023-03-31T02:57:03.084Z,99.61
2023-03-31T02:59:45.938Z,98.38
2023-03-31T03:02:47.587Z,97.06
2023-03-31T03:05:41.409Z,94.25
2023-03-31T03:08:29.993Z,95.91
2023-03-31T03:11:11.308Z,98.64
2023-03-31T03:13:51.834Z,98.92
2023-03-31T03:16:42.526Z,100.00
2023-03-31T03:19:10.642Z,100.00
2023-03-31T03:21:38.375Z,100.00
2023-03-31T03:24:06.376Z,100.00
2023-03-31T03:26:35.278Z,100.00
2023-03-31T03:29:02.997Z,100.00
2023-03-31T03:31:30.815Z,100.00
2023-03-31T03:33:58.172Z,100.00
2023-03-31T03:36:26.030Z,100.00
2023-03-31T03:38:53.491Z,98.80
2023-03-31T03:41:20.918Z,95.97
2023-03-31T03:43:48.608Z,93.95
2023-03-31T03:46:16.244Z,92.47
2023-03-31T03:48:43.756Z,93.83
2023-03-31T03:51:11.405Z,94.59
2023-03-31T03:53:38.830Z,96.24
2023-03-31T03:56:06.880Z,97.58
2023-03-31T03:58:35.012Z,99.43
2023-03-31T04:01:02.450Z,100.00
2023-03-31T04:03:31.204Z,100.00
2023-03-31T04:05:58.735Z,100.00
2023-03-31T04:08:26.308Z,98.09
2023-03-31T04:10:53.974Z,98.24
2023-03-31T04:13:21.514Z,95.51
2023-03-31T04:15:49.212Z,92.67
2023-03-31T04:18:23.313Z,93.91
2023-03-31T04:21:04.212Z,95.44
2023-03-31T04:23:33.308Z,96.68
2023-03-31T04:26:01.345Z,97.41
2023-03-31T04:28:34.817Z,99.58
2023-03-31T04:31:04.099Z,99.97
2023-03-31T04:33:34.183Z,100.00
2023-03-31T04:36:06.867Z,100.00
2023-03-31T04:38:34.802Z,100.00
2023-03-31T04:41:02.270Z,99.99
2023-03-31T04:43:29.645Z,100.00
2023-03-31T04:45:57.546Z,100.00
2023-03-31T04:48:25.658Z,99.45
2023-03-31T04:50:53.034Z,97.17
2023-03-31T04:53:20.742Z,94.80
2023-03-31T04:55:49.298Z,93.32
2023-03-31T04:58:16.917Z,97.21
2023-03-31T05:00:44.718Z,98.86
2023-03-31T05:03:12.167Z,100.00
2023-03-31T05:05:39.899Z,100.00
2023-03-31T05:08:07.652Z,100.00
2023-03-31T05:10:35.437Z,100.00
2023-03-31T05:13:03.372Z,100.00
2023-03-31T05:15:32.429Z,100.00
2023-03-31T05:18:00.952Z,100.00
2023-03-31T05:20:28.367Z,100.00
2023-03-31T05:22:56.090Z,100.00
2023-03-31T05:25:23.641Z,100.00
2023-03-31T05:27:51.151Z,98.26
2023-03-31T05:30:18.900Z,96.29
2023-03-31T05:32:46.522Z,94.46
2023-03-31T05:35:14.007Z,95.16
2023-03-31T05:37:41.686Z,93.83
2023-03-31T05:40:09.829Z,94.84
2023-03-31T05:42:37.956Z,95.75
2023-03-31T05:45:09.009Z,99.06
2023-03-31T05:47:37.055Z,97.86
2023-03-31T05:50:07.869Z,98.39
2023-03-31T05:52:36.168Z,99.39
2023-03-31T05:55:04.562Z,100.00
2023-03-31T05:57:32.580Z,100.00
2023-03-31T06:00:01.211Z,100.00
2023-03-31T06:02:28.885Z,100.00
2023-03-31T06:04:56.639Z,100.00
2023-03-31T06:07:25.038Z,98.25
2023-03-31T06:09:52.703Z,97.32
2023-03-31T06:12:21.864Z,95.63
2023-03-31T06:14:49.307Z,93.95
2023-03-31T06:17:16.763Z,91.49
2023-03-31T06:19:44.483Z,89.80
2023-03-31T06:22:12.172Z,86.64
2023-03-31T06:24:39.951Z,85.97
2023-03-31T06:27:07.772Z,86.68
2023-03-31T06:29:35.294Z,86.58
2023-03-31T06:32:05.098Z,86.23
2023-03-31T06:34:32.911Z,86.69
2023-03-31T06:37:01.381Z,86.66
2023-03-31T06:39:28.908Z,86.91
2023-03-31T06:41:57.120Z,85.42
2023-03-31T06:44:25.724Z,85.08
2023-03-31T06:46:53.205Z,87.39
2023-03-31T06:49:21.212Z,88.80
2023-03-31T06:51:48.652Z,90.60
2023-03-31T06:54:16.895Z,91.95
2023-03-31T06:56:45.133Z,90.21
2023-03-31T06:59:12.888Z,88.19
2023-03-31T07:01:42.662Z,85.86
2023-03-31T07:04:11.048Z,83.81
2023-03-31T07:06:38.745Z,81.01
2023-03-31T07:09:07.112Z,80.00
2023-03-31T07:11:34.942Z,79.50
2023-03-31T07:14:02.556Z,77.95
2023-03-31T07:16:31.544Z,78.85
2023-03-31T07:19:04.366Z,78.49
2023-03-31T07:21:31.866Z,74.33
2023-03-31T07:23:59.572Z,76.67
2023-03-31T07:26:27.784Z,76.44
2023-03-31T07:28:57.362Z,79.30
2023-03-31T07:31:25.035Z,78.62
2023-03-31T07:33:52.838Z,79.29
2023-03-31T07:36:20.899Z,76.77
2023-03-31T07:38:49.728Z,75.15
2023-03-31T07:41:19.582Z,76.71
2023-03-31T07:43:47.783Z,75.74
2023-03-31T07:46:18.141Z,73.41
2023-03-31T07:48:47.055Z,73.67
2023-03-31T07:51:16.924Z,78.15
2023-03-31T07:53:46.409Z,79.99
2023-03-31T07:56:14.199Z,78.30
2023-03-31T07:58:41.905Z,78.69
2023-03-31T08:01:09.780Z,78.84
2023-03-31T08:03:38.947Z,78.55
2023-03-31T08:06:06.593Z,77.52
2023-03-31T08:08:34.210Z,74.65
2023-03-31T08:11:01.984Z,74.63
2023-03-31T08:13:29.674Z,76.83
2023-03-31T08:15:57.345Z,73.63
2023-03-31T08:18:25.309Z,74.94
2023-03-31T08:20:53.030Z,71.31
2023-03-31T08:23:20.441Z,67.66
2023-03-31T08:25:48.867Z,69.66
2023-03-31T08:28:16.112Z,67.80
2023-03-31T08:30:43.310Z,68.55
2023-03-31T08:33:14.269Z,67.06
2023-03-31T08:35:41.787Z,66.89
2023-03-31T08:38:12.250Z,66.74
2023-03-31T08:40:43.713Z,64.22
2023-03-31T08:43:16.686Z,65.71
2023-03-31T08:45:45.456Z,66.58
2023-03-31T08:48:25.904Z,70.33
2023-03-31T08:50:58.017Z,69.91
2023-03-31T08:53:26.911Z,67.59
2023-03-31T08:55:54.915Z,67.60
2023-03-31T08:58:22.080Z,68.11
2023-03-31T09:01:02.072Z,67.65
2023-03-31T09:03:36.267Z,67.94
2023-03-31T09:06:29.654Z,67.95
2023-03-31T09:08:57.641Z,67.98
2023-03-31T09:11:57.252Z,67.78
2023-03-31T09:14:26.059Z,66.35
2023-03-31T09:16:53.344Z,69.56
2023-03-31T09:19:23.276Z,70.41
2023-03-31T09:21:51.854Z,65.93
2023-03-31T09:24:21.111Z,64.65
2023-03-31T09:26:59.402Z,66.51
2023-03-31T09:29:30.094Z,66.46
2023-03-31T09:32:02.227Z,66.34
2023-03-31T09:34:31.486Z,65.23
2023-03-31T09:36:58.756Z,61.89
2023-03-31T09:39:26.374Z,65.27
2023-03-31T09:41:55.571Z,66.20
2023-03-31T09:44:32.998Z,62.68
2023-03-31T09:47:00.473Z,63.36
2023-03-31T09:49:28.514Z,62.97
2023-03-31T09:52:01.084Z,59.83
2023-03-31T09:54:31.094Z,61.67
2023-03-31T09:56:58.277Z,61.64
2023-03-31T09:59:32.555Z,63.10
2023-03-31T10:02:02.594Z,64.31
2023-03-31T10:04:30.979Z,61.96
2023-03-31T10:06:59.366Z,62.76
2023-03-31T10:09:27.917Z,61.83
2023-03-31T10:12:27.812Z,60.32
2023-03-31T10:15:00.396Z,62.62
2023-03-31T10:17:28.061Z,60.95
2023-03-31T10:19:59.546Z,57.35
2023-03-31T10:22:28.005Z,58.08
2023-03-31T10:24:55.677Z,58.59
2023-03-31T10:27:22.860Z,60.18
2023-03-31T10:29:53.612Z,62.46
2023-03-31T10:32:34.309Z,61.90
2023-03-31T10:35:20.184Z,63.16
2023-03-31T10:37:48.244Z,61.65
2023-03-31T10:40:16.323Z,63.00
2023-03-31T10:42:47.005Z,62.40
2023-03-31T10:45:35.793Z,61.35
2023-03-31T10:48:04.434Z,60.09
2023-03-31T10:50:33.094Z,60.78
2023-03-31T10:53:14.028Z,60.61
2023-03-31T10:55:44.282Z,55.58
2023-03-31T10:58:18.847Z,55.46
2023-03-31T11:00:49.388Z,53.86
2023-03-31T11:03:25.525Z,55.87
2023-03-31T11:05:54.908Z,54.98
2023-03-31T11:09:00.716Z,55.49
2023-03-31T11:11:34.667Z,53.95
2023-03-31T11:14:04.373Z,52.96
2023-03-31T11:16:37.731Z,56.06
2023-03-31T11:19:21.213Z,54.76
2023-03-31T11:22:09.860Z,55.23
2023-03-31T11:24:46.561Z,57.30
2023-03-31T11:27:17.161Z,58.56
2023-03-31T11:30:02.140Z,56.98
2023-03-31T11:32:38.886Z,58.18
2023-03-31T11:35:09.346Z,57.76
2023-03-31T11:37:41.551Z,60.22
2023-03-31T11:40:27.891Z,60.25
2023-03-31T11:42:56.338Z,62.82
2023-03-31T11:45:26.585Z,61.74
2023-03-31T11:47:54.878Z,60.18
2023-03-31T11:50:27.114Z,59.25
2023-03-31T11:52:58.828Z,59.07
2023-03-31T11:55:27.460Z,59.26
2023-03-31T11:57:54.628Z,60.97
2023-03-31T12:00:32.757Z,60.00
2023-03-31T12:03:19.190Z,58.90
2023-03-31T12:05:47.815Z,59.50
2023-03-31T12:08:16.839Z,56.81
2023-03-31T12:10:45.473Z,56.87
2023-03-31T12:13:12.577Z,54.80
2023-03-31T12:15:40.837Z,54.24
2023-03-31T12:18:16.569Z,55.18
2023-03-31T12:21:02.937Z,55.88
2023-03-31T12:23:31.608Z,56.30
2023-03-31T12:26:03.960Z,54.03
2023-03-31T12:28:32.692Z,54.34
2023-03-31T12:31:00.409Z,54.00
2023-03-31T12:33:38.206Z,53.17
2023-03-31T12:36:20.949Z,54.51
2023-03-31T12:38:52.216Z,54.46
2023-03-31T12:41:28.868Z,55.86
2023-03-31T12:44:11.096Z,55.50
2023-03-31T12:46:57.340Z,54.76
2023-03-31T12:49:24.541Z,53.80
2023-03-31T12:51:54.797Z,52.80
2023-03-31T12:54:33.944Z,53.49
2023-03-31T12:57:04.474Z,53.07
2023-03-31T12:59:35.953Z,52.73
2023-03-31T13:02:09.617Z,51.36
2023-03-31T13:04:37.469Z,52.54
2023-03-31T13:07:11.721Z,52.24
2023-03-31T13:09:53.070Z,51.41
2023-03-31T13:12:25.519Z,53.25
2023-03-31T13:14:54.455Z,52.39
2023-03-31T13:17:25.543Z,51.98
2023-03-31T13:19:53.084Z,51.40
2023-03-31T13:22:29.568Z,51.29
2023-03-31T13:25:15.997Z,50.98
2023-03-31T13:27:49.814Z,51.34
2023-03-31T13:30:44.708Z,51.84
2023-03-31T13:33:13.181Z,53.64
2023-03-31T13:35:42.634Z,52.54
2023-03-31T13:38:14.418Z,52.45
2023-03-31T13:41:01.086Z,53.51
2023-03-31T13:43:34.189Z,52.14
2023-03-31T13:46:23.515Z,51.87
2023-03-31T13:49:03.053Z,52.39
2023-03-31T13:51:36.570Z,53.21
2023-03-31T13:54:16.963Z,52.84
2023-03-31T13:56:48.145Z,51.68
2023-03-31T13:59:33.785Z,51.46
2023-03-31T14:02:24.380Z,51.18
2023-03-31T14:05:12.130Z,51.09
2023-03-31T14:07:39.307Z,50.69
2023-03-31T14:10:07.327Z,51.75
2023-03-31T14:12:35.484Z,51.61
2023-03-31T14:15:03.688Z,50.78
2023-03-31T14:17:36.177Z,50.23
2023-03-31T14:20:22.462Z,50.51
2023-03-31T14:22:59.080Z,49.27
2023-03-31T14:25:45.078Z,49.98
2023-03-31T14:28:21.723Z,50.16
2023-03-31T14:30:59.034Z,52.04
2023-03-31T14:33:26.471Z,49.08
2023-03-31T14:35:56.249Z,49.07
2023-03-31T14:38:23.624Z,48.10
2023-03-31T14:40:53.903Z,48.33
2023-03-31T14:43:26.100Z,49.19
2023-03-31T14:46:04.909Z,50.44
2023-03-31T14:48:32.856Z,51.41
2023-03-31T14:51:01.458Z,51.93
2023-03-31T14:53:28.995Z,52.22
2023-03-31T14:56:00.319Z,52.99
2023-03-31T14:58:31.471Z,51.44
2023-03-31T15:00:58.697Z,51.33
2023-03-31T15:03:26.130Z,52.16
2023-03-31T15:05:56.323Z,52.18
2023-03-31T15:08:23.540Z,51.03
2023-03-31T15:11:05.609Z,51.14
2023-03-31T15:14:00.966Z,51.32
2023-03-31T15:16:31.419Z,51.36
2023-03-31T15:19:00.482Z,52.04
2023-03-31T15:21:28.582Z,52.47
2023-03-31T15:23:56.197Z,52.21
2023-03-31T15:26:38.460Z,53.92
2023-03-31T15:29:28.835Z,53.86
2023-03-31T15:31:57.005Z,53.93
2023-03-31T15:34:29.941Z,54.47
2023-03-31T15:36:57.462Z,55.42
2023-03-31T15:39:25.435Z,56.14
2023-03-31T15:41:52.946Z,55.91
2023-03-31T15:44:23.274Z,56.51
2023-03-31T15:46:56.661Z,55.44
2023-03-31T15:49:24.769Z,55.75
2023-03-31T15:51:53.116Z,55.87
2023-03-31T15:54:29.096Z,55.47
2023-03-31T15:56:56.874Z,55.95
2023-03-31T15:59:27.681Z,55.65
2023-03-31T16:02:00.071Z,55.96
2023-03-31T16:04:32.269Z,56.51
2023-03-31T16:07:03.162Z,55.64
2023-03-31T16:09:41.785Z,55.87
2023-03-31T16:12:16.261Z,56.07
2023-03-31T16:14:53.154Z,55.85
2023-03-31T16:17:46.535Z,56.29
2023-03-31T16:20:31.865Z,56.58
2023-03-31T16:22:59.684Z,58.21
2023-03-31T16:25:28.093Z,58.60
2023-03-31T16:27:56.400Z,58.72
2023-03-31T16:30:34.721Z,58.50
2023-03-31T16:33:02.609Z,58.98
2023-03-31T16:35:34.445Z,59.03
2023-03-31T16:38:02.209Z,59.33
2023-03-31T16:40:30.894Z,59.90
2023-03-31T16:43:07.523Z,59.84
2023-03-31T16:45:35.018Z,60.66
2023-03-31T16:50:51.401Z,60.81
2023-03-31T16:53:22.456Z,61.25
2023-03-31T16:55:51.652Z,61.53
2023-03-31T16:58:18.930Z,61.79
2023-03-31T17:00:46.586Z,61.73
2023-03-31T17:03:15.704Z,62.05
2023-03-31T17:05:43.811Z,62.32
2023-03-31T17:08:11.656Z,62.42
2023-03-31T17:10:40.216Z,63.02
2023-03-31T17:13:08.921Z,63.07
2023-03-31T17:15:36.682Z,63.22
2023-03-31T17:18:04.712Z,63.92
2023-03-31T17:20:32.992Z,63.39
2023-03-31T17:23:00.730Z,63.50
2023-03-31T17:25:28.618Z,64.01
2023-03-31T17:27:56.318Z,63.86
2023-03-31T17:30:23.953Z,64.51
2023-03-31T17:32:54.638Z,64.51
2023-03-31T17:35:22.986Z,64.31
2023-03-31T17:37:53.782Z,64.09
2023-03-31T17:40:22.556Z,64.99
2023-03-31T17:42:50.628Z,64.63
2023-03-31T17:45:20.796Z,64.89
2023-03-31T17:47:51.979Z,65.18
2023-03-31T17:50:20.469Z,65.26
2023-03-31T17:52:48.307Z,65.77
2023-03-31T17:55:16.059Z,66.34
2023-03-31T17:57:43.582Z,66.22
2023-03-31T18:00:11.842Z,66.45
2023-03-31T18:02:40.042Z,66.63
2023-03-31T18:05:08.864Z,66.88
2023-03-31T18:07:36.771Z,67.02
2023-03-31T18:10:08.300Z,67.74
2023-03-31T18:12:36.977Z,68.89
2023-03-31T18:15:07.385Z,70.08
2023-03-31T18:17:35.350Z,71.16
2023-03-31T18:20:03.056Z,71.39
2023-03-31T18:22:32.189Z,71.58
2023-03-31T18:25:00.452Z,70.03
2023-03-31T18:27:28.747Z,66.31
2023-03-31T18:29:57.120Z,64.33
2023-03-31T18:32:26.541Z,64.95
2023-03-31T18:34:54.202Z,64.64
2023-03-31T18:37:22.893Z,62.81
2023-03-31T18:39:51.116Z,63.37
2023-03-31T18:42:25.188Z,64.41
2023-03-31T18:44:53.934Z,68.82
2023-03-31T18:47:22.186Z,71.09
2023-03-31T18:49:54.216Z,72.20
2023-03-31T18:52:22.980Z,73.01
2023-03-31T18:54:52.124Z,73.07
2023-03-31T18:57:19.897Z,73.68
2023-03-31T18:59:48.708Z,73.18
2023-03-31T19:02:18.312Z,74.52
2023-03-31T19:04:47.520Z,75.08
2023-03-31T19:07:16.895Z,74.94
2023-03-31T19:09:48.209Z,74.84
2023-03-31T19:12:17.089Z,76.05
2023-03-31T19:14:45.260Z,76.09
2023-03-31T19:17:13.498Z,76.83
2023-03-31T19:19:42.689Z,77.84
2023-03-31T19:22:11.338Z,78.48
2023-03-31T19:24:42.196Z,77.40
2023-03-31T19:27:12.647Z,76.50
2023-03-31T19:29:41.074Z,76.86
2023-03-31T19:32:08.923Z,75.26
2023-03-31T19:34:38.966Z,74.05
2023-03-31T19:37:11.509Z,73.68
2023-03-31T19:39:42.993Z,74.78
2023-03-31T19:42:11.462Z,74.56
2023-03-31T19:44:40.077Z,73.47
2023-03-31T19:47:10.978Z,73.89
2023-03-31T19:49:40.292Z,72.58
2023-03-31T19:52:08.875Z,73.44
2023-03-31T19:54:37.410Z,76.96
2023-03-31T19:57:09.423Z,79.90
2023-03-31T19:59:37.728Z,79.83
2023-03-31T20:02:07.248Z,78.44
2023-03-31T20:04:36.208Z,81.78
2023-03-31T20:07:05.296Z,82.62
2023-03-31T20:09:34.132Z,84.06
2023-03-31T20:12:05.416Z,84.32
2023-03-31T20:14:34.746Z,84.25
2023-03-31T20:17:05.247Z,83.40
2023-03-31T20:19:33.430Z,84.50
2023-03-31T20:22:02.508Z,85.53
2023-03-31T20:24:32.168Z,86.11
2023-03-31T20:27:00.629Z,85.48
2023-03-31T20:29:29.216Z,83.06
2023-03-31T20:31:58.758Z,86.36
2023-03-31T20:34:28.565Z,82.84
2023-03-31T20:36:57.296Z,83.04
2023-03-31T20:39:25.337Z,81.26
2023-03-31T20:41:54.082Z,85.22
2023-03-31T20:44:22.308Z,83.83
2023-03-31T20:46:51.425Z,84.73
2023-03-31T20:49:18.812Z,85.07
2023-03-31T20:51:47.468Z,85.79
2023-03-31T20:54:15.186Z,86.56
2023-03-31T20:56:42.863Z,88.18
2023-03-31T20:59:11.408Z,89.89
2023-03-31T21:01:40.146Z,89.66
2023-03-31T21:04:08.851Z,91.84
2023-03-31T21:06:40.453Z,93.49
2023-03-31T21:09:09.070Z,91.86
2023-03-31T21:11:36.505Z,87.49
2023-03-31T21:14:03.779Z,85.23
2023-03-31T21:16:32.587Z,89.60
2023-03-31T21:18:59.928Z,90.72
2023-03-31T21:21:27.385Z,91.15
2023-03-31T21:23:54.895Z,88.93
2023-03-31T21:26:22.193Z,90.73
2023-03-31T21:28:50.830Z,87.47
2023-03-31T21:31:18.902Z,91.23
2023-03-31T21:33:46.948Z,91.61
2023-03-31T21:36:15.132Z,91.24
2023-03-31T21:38:43.081Z,91.67
2023-03-31T21:41:14.588Z,94.28
2023-03-31T21:43:41.873Z,94.54
2023-03-31T21:46:09.750Z,90.57
2023-03-31T21:48:37.141Z,86.00
2023-03-31T21:51:04.642Z,85.96
2023-03-31T21:53:32.117Z,83.49
2023-03-31T21:56:00.570Z,81.81
2023-03-31T21:58:28.755Z,80.87
2023-03-31T22:00:57.690Z,85.73
2023-03-31T22:03:28.618Z,89.52
2023-03-31T22:05:56.680Z,90.09
2023-03-31T22:08:24.159Z,85.44
2023-03-31T22:10:52.161Z,84.81
2023-03-31T22:13:19.980Z,82.67
2023-03-31T22:15:47.500Z,81.40
2023-03-31T22:18:16.780Z,78.72
2023-03-31T22:20:44.299Z,77.59
2023-03-31T22:23:11.489Z,76.29
2023-03-31T22:25:38.939Z,76.84
2023-03-31T22:28:07.364Z,78.08
2023-03-31T22:30:35.041Z,77.99
2023-03-31T22:33:02.512Z,77.52
2023-03-31T22:35:30.087Z,77.16
2023-03-31T22:37:57.287Z,76.40
2023-03-31T22:40:25.564Z,81.32
2023-03-31T22:42:54.807Z,80.12
2023-03-31T22:45:22.056Z,79.23
2023-03-31T22:47:49.966Z,76.22
2023-03-31T22:50:17.240Z,76.33
2023-03-31T22:52:45.481Z,77.64
2023-03-31T22:55:12.913Z,79.13
2023-03-31T22:57:40.298Z,78.91
2023-03-31T23:00:07.784Z,81.51
2023-03-31T23:02:35.328Z,82.10
2023-03-31T23:05:02.510Z,87.12
2023-03-31T23:07:30.408Z,86.77
2023-03-31T23:09:57.874Z,85.40
2023-03-31T23:12:25.855Z,86.76
2023-03-31T23:14:53.043Z,86.63
2023-03-31T23:17:20.788Z,86.12
2023-03-31T23:19:48.343Z,86.39
2023-03-31T23:22:15.740Z,86.62
2023-03-31T23:24:43.229Z,87.51
2023-03-31T23:27:10.720Z,87.84
2023-03-31T23:29:37.985Z,89.56
2023-03-31T23:32:05.524Z,90.93
2023-03-31T23:34:32.801Z,90.91
2023-03-31T23:36:59.981Z,92.67
2023-03-31T23:39:27.474Z,93.14
2023-03-31T23:41:54.618Z,94.18
2023-03-31T23:44:21.820Z,95.10
2023-03-31T23:46:49.259Z,95.72
2023-03-31T23:49:16.648Z,96.12
2023-03-31T23:51:43.778Z,95.71
2023-03-31T23:54:11.213Z,95.13
2023-03-31T23:56:38.784Z,96.69
2023-03-31T23:59:06.440Z,97.93
